createdAt,value
2022-11-13T00:00:25.283Z,5.50
2022-11-13T00:05:25.204Z,5.48
2022-11-13T00:10:25.147Z,5.51
2022-11-13T00:15:25.082Z,5.57
2022-11-13T00:20:25.011Z,5.65
2022-11-13T00:25:24.945Z,5.74
2022-11-13T00:30:24.878Z,5.82
2022-11-13T00:35:24.845Z,5.88
2022-11-13T00:40:24.758Z,5.94
2022-11-13T00:45:24.680Z,5.99
2022-11-13T00:50:24.617Z,6.02
2022-11-13T00:55:24.535Z,6.04
2022-11-13T01:00:24.497Z,6.05
2022-11-13T01:05:44.101Z,6.06
2022-11-13T01:10:36.487Z,6.07
2022-11-13T01:15:36.439Z,6.08
2022-11-13T01:20:36.370Z,6.10
2022-11-13T01:25:36.319Z,6.12
2022-11-13T01:30:36.229Z,6.12
2022-11-13T01:35:36.168Z,6.10
2022-11-13T01:40:36.098Z,6.08
2022-11-13T01:45:36.065Z,6.06
2022-11-13T01:50:35.972Z,6.06
2022-11-13T01:55:35.903Z,6.06
2022-11-13T02:00:35.830Z,6.06
2022-11-13T02:05:35.768Z,6.07
2022-11-13T02:10:35.703Z,6.06
2022-11-13T02:15:35.637Z,6.03
2022-11-13T02:20:35.580Z,5.97
2022-11-13T02:25:35.484Z,5.89
2022-11-13T02:30:35.455Z,5.82
2022-11-13T02:35:35.377Z,5.76
2022-11-13T02:40:35.316Z,5.73
2022-11-13T02:45:35.254Z,5.70
2022-11-13T02:50:35.209Z,5.68
2022-11-13T02:55:35.110Z,5.66
2022-11-13T03:00:35.036Z,5.63
2022-11-13T03:05:34.968Z,5.59
2022-11-13T03:10:34.915Z,5.56
2022-11-13T03:15:34.841Z,5.54
2022-11-13T03:20:34.784Z,5.53
2022-11-13T03:25:34.707Z,5.52
2022-11-13T03:30:34.682Z,5.50
2022-11-13T03:35:41.861Z,5.45
2022-11-13T03:40:35.523Z,5.39
2022-11-13T03:45:34.439Z,5.33
2022-11-13T03:50:34.385Z,5.30
2022-11-13T03:55:34.298Z,5.28
2022-11-13T04:00:34.264Z,5.26
2022-11-13T04:05:34.179Z,5.25
2022-11-13T04:10:34.140Z,5.26
2022-11-13T04:15:34.075Z,5.27
2022-11-13T04:20:33.994Z,5.28
2022-11-13T04:25:33.935Z,5.28
2022-11-13T04:30:33.870Z,5.28
2022-11-13T04:35:33.793Z,5.28
2022-11-13T04:40:33.711Z,5.26
2022-11-13T04:45:33.663Z,5.24
2022-11-13T04:50:33.599Z,5.20
2022-11-13T04:55:33.531Z,5.15
2022-11-13T05:00:33.490Z,5.08
2022-11-13T05:05:33.394Z,5.03
2022-11-13T05:10:33.334Z,4.98
2022-11-13T05:15:33.269Z,4.95
2022-11-13T05:20:33.210Z,4.93
2022-11-13T05:25:33.118Z,4.90
2022-11-13T05:30:33.082Z,4.86
2022-11-13T05:35:33.037Z,4.82
2022-11-13T05:40:32.943Z,4.79
2022-11-13T05:45:32.879Z,4.74
2022-11-13T05:50:32.830Z,4.69
2022-11-13T05:55:32.730Z,4.66
2022-11-13T06:00:32.702Z,4.65
2022-11-13T06:05:32.624Z,4.64
2022-11-13T06:10:32.565Z,4.63
2022-11-13T06:15:32.506Z,4.61
2022-11-13T06:20:32.430Z,4.60
2022-11-13T06:25:32.358Z,4.59
2022-11-13T06:30:32.306Z,4.57
2022-11-13T06:35:32.242Z,4.57
2022-11-13T06:40:32.167Z,4.57
2022-11-13T06:45:32.083Z,4.58
2022-11-13T06:50:32.051Z,4.61
2022-11-13T06:55:31.970Z,4.64
2022-11-13T07:00:47.823Z,4.68
2022-11-13T07:05:40.238Z,4.72
2022-11-13T07:10:40.116Z,4.74
2022-11-13T07:15:40.064Z,4.77
2022-11-13T07:20:40.008Z,4.82
2022-11-13T07:25:39.939Z,4.89
2022-11-13T07:30:39.855Z,4.96
2022-11-13T07:35:39.791Z,5.04
2022-11-13T07:40:39.731Z,5.12
2022-11-13T07:45:39.658Z,5.21
2022-11-13T07:50:39.596Z,5.28
2022-11-13T07:55:39.541Z,5.35
2022-11-13T08:00:39.567Z,5.43
2022-11-13T08:05:39.409Z,5.51
2022-11-13T08:10:39.360Z,5.60
2022-11-13T08:15:39.260Z,5.70
2022-11-13T08:20:39.197Z,5.78
2022-11-13T08:25:39.136Z,5.87
2022-11-13T08:30:39.080Z,5.98
2022-11-13T08:35:38.989Z,6.13
2022-11-13T08:40:38.963Z,6.27
2022-11-13T08:45:38.889Z,6.37
2022-11-13T08:50:38.789Z,6.48
2022-11-13T08:55:38.742Z,6.60
2022-11-13T09:00:38.669Z,6.72
2022-11-13T09:05:38.590Z,6.87
2022-11-13T09:10:38.554Z,7.08
2022-11-13T09:15:38.489Z,7.34
2022-11-13T09:20:38.411Z,7.64
2022-11-13T09:25:38.483Z,7.92
2022-11-13T09:30:38.305Z,8.17
2022-11-13T09:35:38.231Z,8.49
2022-11-13T09:40:38.222Z,8.81
2022-11-13T09:45:38.094Z,9.01
2022-11-13T09:50:38.015Z,9.07
2022-11-13T09:55:37.958Z,9.00
2022-11-13T10:00:37.889Z,8.88
2022-11-13T10:05:37.830Z,8.75
2022-11-13T10:10:37.766Z,8.63
2022-11-13T10:15:37.702Z,8.54
2022-11-13T10:20:37.630Z,8.49
2022-11-13T10:25:37.562Z,8.49
2022-11-13T10:30:37.481Z,8.61
2022-11-13T10:35:37.426Z,8.82
2022-11-13T10:40:37.359Z,9.06
2022-11-13T10:45:37.307Z,9.29
2022-11-13T10:50:37.273Z,9.41
2022-11-13T10:55:37.172Z,9.42
2022-11-13T11:00:37.094Z,9.42
2022-11-13T11:05:37.032Z,9.45
2022-11-13T11:10:37.014Z,9.49
2022-11-13T11:15:36.928Z,9.55
2022-11-13T11:20:36.964Z,9.64
2022-11-13T11:25:36.799Z,9.75
2022-11-13T11:30:36.739Z,9.86
2022-11-13T11:35:36.626Z,10.08
2022-11-13T11:40:36.567Z,10.40
2022-11-13T11:45:36.510Z,10.91
2022-11-13T11:50:36.447Z,11.39
2022-11-13T11:55:36.386Z,11.60
2022-11-13T12:00:36.288Z,11.69
2022-11-13T12:05:36.329Z,11.84
2022-11-13T12:10:36.250Z,12.03
2022-11-13T12:15:36.148Z,12.20
2022-11-13T12:20:36.051Z,12.97
2022-11-13T12:25:35.968Z,14.54
2022-11-13T12:30:35.940Z,15.97
2022-11-13T12:35:35.846Z,16.11
2022-11-13T12:40:38.702Z,15.20
2022-11-13T12:45:36.742Z,14.06
2022-11-13T12:50:35.654Z,13.03
2022-11-13T12:55:35.587Z,12.18
2022-11-13T13:00:35.498Z,11.49
2022-11-13T13:05:35.446Z,10.97
2022-11-13T13:10:35.378Z,10.60
2022-11-13T13:15:35.313Z,10.36
2022-11-13T13:20:35.294Z,10.20
2022-11-13T13:25:35.309Z,10.08
2022-11-13T13:30:35.133Z,9.98
2022-11-13T13:35:35.122Z,9.87
2022-11-13T13:40:34.992Z,9.76
2022-11-13T13:45:34.903Z,9.69
2022-11-13T13:50:34.863Z,9.68
2022-11-13T13:55:34.795Z,9.71
2022-11-13T14:00:34.723Z,9.76
2022-11-13T14:05:34.686Z,9.82
2022-11-13T14:10:34.583Z,9.88
2022-11-13T14:15:34.531Z,9.94
2022-11-13T14:20:34.468Z,9.98
2022-11-13T14:25:34.476Z,10.03
2022-11-13T14:30:34.407Z,10.05
2022-11-13T14:35:35.071Z,10.05
2022-11-13T14:40:34.198Z,10.03
2022-11-13T14:45:34.171Z,9.99
2022-11-13T14:50:34.082Z,9.95
2022-11-13T14:55:34.004Z,9.89
2022-11-13T15:00:33.958Z,9.83
2022-11-13T15:05:33.892Z,9.76
2022-11-13T15:10:33.784Z,9.65
2022-11-13T15:15:33.743Z,9.52
2022-11-13T15:20:33.730Z,9.39
2022-11-13T15:25:33.611Z,9.28
2022-11-13T15:30:33.544Z,9.18
2022-11-13T15:35:33.521Z,9.07
2022-11-13T15:40:33.473Z,8.93
2022-11-13T15:45:33.352Z,8.77
2022-11-13T15:50:33.287Z,8.61
2022-11-13T15:55:33.207Z,8.46
2022-11-13T16:00:33.147Z,8.32
2022-11-13T16:05:33.091Z,8.18
2022-11-13T16:10:33.068Z,8.05
2022-11-13T16:15:32.934Z,7.93
2022-11-13T16:20:32.900Z,7.79
2022-11-13T16:25:32.829Z,7.64
2022-11-13T16:30:32.790Z,7.50
2022-11-13T16:35:32.694Z,7.37
2022-11-13T16:40:32.645Z,7.24
2022-11-13T16:45:32.592Z,7.12
2022-11-13T16:50:32.479Z,7.00
2022-11-13T16:55:32.435Z,6.90
2022-11-13T17:00:32.366Z,6.80
2022-11-13T17:05:32.273Z,6.71
2022-11-13T17:10:33.101Z,6.62
2022-11-13T17:15:32.137Z,6.54
2022-11-13T17:20:32.109Z,6.48
2022-11-13T17:25:32.040Z,6.45
2022-11-13T17:30:31.936Z,6.43
2022-11-13T17:35:31.893Z,6.41
2022-11-13T17:40:31.835Z,6.40
2022-11-13T17:45:31.731Z,6.37
2022-11-13T17:50:31.695Z,6.33
2022-11-13T17:55:31.634Z,6.28
2022-11-13T18:00:31.555Z,6.24
2022-11-13T18:05:31.502Z,6.18
2022-11-13T18:10:31.446Z,6.13
2022-11-13T18:15:39.613Z,6.07
2022-11-13T18:20:31.290Z,6.01
2022-11-13T18:25:35.347Z,5.96
2022-11-13T18:30:32.174Z,5.92
2022-11-13T18:35:31.086Z,5.88
2022-11-13T18:40:31.033Z,5.84
2022-11-13T18:45:30.983Z,5.79
2022-11-13T18:50:30.871Z,5.73
2022-11-13T18:55:30.842Z,5.67
2022-11-13T19:00:30.788Z,5.61
2022-11-13T19:05:30.692Z,5.58
2022-11-13T19:10:30.666Z,5.55
2022-11-13T19:15:30.580Z,5.53
2022-11-13T19:20:30.497Z,5.50
2022-11-13T19:25:30.432Z,5.46
2022-11-13T19:30:30.372Z,5.42
2022-11-13T19:35:30.285Z,5.37
2022-11-13T19:40:30.251Z,5.31
2022-11-13T19:45:30.198Z,5.26
2022-11-13T19:50:30.118Z,5.22
2022-11-13T19:55:30.060Z,5.18
2022-11-13T20:00:30.001Z,5.15
2022-11-13T20:05:29.906Z,5.12
2022-11-13T20:10:29.839Z,5.09
2022-11-13T20:15:30.098Z,5.06
2022-11-13T20:20:29.725Z,5.02
2022-11-13T20:25:29.635Z,4.97
2022-11-13T20:30:29.606Z,4.92
2022-11-13T20:35:29.592Z,4.87
2022-11-13T20:40:29.473Z,4.82
2022-11-13T20:45:29.393Z,4.77
2022-11-13T20:50:29.360Z,4.73
2022-11-13T20:55:29.266Z,4.69
2022-11-13T21:00:29.197Z,4.65
2022-11-13T21:05:29.142Z,4.62
2022-11-13T21:10:29.096Z,4.59
2022-11-13T21:15:29.012Z,4.56
2022-11-13T21:20:28.943Z,4.53
2022-11-13T21:25:28.889Z,4.49
2022-11-13T21:30:28.800Z,4.46
2022-11-13T21:35:28.865Z,4.42
2022-11-13T21:40:28.703Z,4.38
2022-11-13T21:45:28.636Z,4.34
2022-11-13T21:50:28.559Z,4.30
2022-11-13T21:55:28.496Z,4.25
2022-11-13T22:00:28.427Z,4.20
2022-11-13T22:05:28.371Z,4.14
2022-11-13T22:10:28.370Z,4.08
2022-11-13T22:15:28.242Z,4.03
2022-11-13T22:20:28.370Z,3.98
2022-11-13T22:25:28.095Z,3.95
2022-11-13T22:30:28.054Z,3.93
2022-11-13T22:35:27.956Z,3.91
2022-11-13T22:40:27.927Z,3.89
2022-11-13T22:45:27.844Z,3.86
2022-11-13T22:50:27.794Z,3.82
2022-11-13T22:55:27.717Z,3.79
2022-11-13T23:00:27.689Z,3.76
2022-11-13T23:05:27.596Z,3.75
2022-11-13T23:10:27.568Z,3.73
2022-11-13T23:15:27.463Z,3.72
2022-11-13T23:20:27.406Z,3.72
2022-11-13T23:25:27.313Z,3.73
2022-11-13T23:30:27.280Z,3.77
2022-11-13T23:35:27.210Z,3.82
2022-11-13T23:40:27.157Z,3.86
2022-11-13T23:45:27.080Z,3.91
2022-11-13T23:50:27.041Z,3.95
2022-11-13T23:55:26.960Z,3.99
